Mount Angel, Oregon
Current Conditions -  °F | °C
As of 7:53 AM on Tuesday 21 Oct 2014 (Local Time) from KUAO Reporting Station
Few Clouds Few Clouds  
Wind Chill: 53°   Ceiling: Unl
Heat Index: 53°   Visibility: 10mi
Dew Point: 49°   Wind: 13mph
Humidity: 86%   Direction: 190°S
Pressure: 29.98"   Gusts: NA
Location:  45.07°N, 122.8°W
Report Text: KUAO 211453Z AUTO 19011KT 10SM FEW065 12/09 A2998 RMK AO2 SLP150 60001 T01170094 51015
Loading
Personal Weather Stations






























Interactive Weather Map
Tropical Storm Tracking
New forecast layout! Learn more

10-Day Weather Forecast

Advertisements
Track Severe Weather on mobile